Time;durP1;ratioP1;P1;durP2;ratioP2;P2;SDS_P1;SDS_P2;PMS_P1;PMS_P2;Temp;Humidity;BMP_temperature;BMP_pressure;BME280_temperature;BME280_humidity;BME280_pressure;Samples;Min_cycle;Max_cycle;Signal;HPM_P1;HPM_P2
2021/05/21 00:00:40;;;;;;;9.95;1.42;;;15.20;99.90;;;;;;5094240;28;20205;-79
2021/05/21 00:03:14;;;;;;;2.58;1.70;;;15.20;99.90;;;;;;5096174;28;20733;-79
2021/05/21 00:05:40;;;;;;;4.20;1.42;;;15.10;99.90;;;;;;5092909;28;20241;-79
2021/05/21 00:08:10;;;;;;;2.90;1.33;;;15.20;99.90;;;;;;5095247;28;20200;-79
2021/05/21 00:13:34;;;;;;;4.03;1.27;;;15.20;99.90;;;;;;5092699;28;20260;-79
2021/05/21 00:18:41;;;;;;;2.75;1.40;;;15.20;99.90;;;;;;5096939;28;20232;-78
2021/05/21 00:21:08;;;;;;;3.70;1.67;;;15.20;99.90;;;;;;5098643;28;20223;-78
2021/05/21 00:23:35;;;;;;;2.33;1.50;;;15.10;99.90;;;;;;5092149;28;20205;-78
2021/05/21 00:26:01;;;;;;;1.63;1.10;;;15.10;99.90;;;;;;5100486;28;20235;-79
2021/05/21 00:28:27;;;;;;;2.88;1.20;;;15.10;99.90;;;;;;5104232;28;20208;-78
2021/05/21 00:36:24;;;;;;;2.15;1.60;;;15.10;99.90;;;;;;5092130;28;20207;-79
2021/05/21 00:47:11;;;;;;;1.88;1.38;;;15.20;99.90;;;;;;5091363;28;20287;-78
2021/05/21 00:49:37;;;;;;;3.25;1.30;;;15.20;99.90;;;;;;5090207;28;20197;-78
2021/05/21 01:02:52;;;;;;;4.18;1.55;;;15.00;99.90;;;;;;5093564;28;20314;-78
2021/05/21 01:05:18;;;;;;;4.28;1.55;;;15.00;99.90;;;;;;5095590;28;20236;-78
2021/05/21 01:07:44;;;;;;;2.22;1.67;;;14.90;99.90;;;;;;5088453;28;20208;-77
2021/05/21 01:10:12;;;;;;;2.08;1.85;;;14.90;99.90;;;;;;5095365;28;20208;-78
2021/05/21 01:12:38;;;;;;;2.80;1.52;;;14.80;99.90;;;;;;5088269;28;20197;-77
2021/05/21 01:15:06;;;;;;;3.30;1.27;;;14.80;99.90;;;;;;5089115;28;20211;-78
2021/05/21 01:17:34;;;;;;;1.70;1.60;;;14.80;99.90;;;;;;5093386;28;20209;-77
2021/05/21 01:20:02;;;;;;;6.18;2.17;;;14.80;99.90;;;;;;5096375;28;20200;-78
2021/05/21 01:22:29;;;;;;;1.42;1.27;;;14.90;99.90;;;;;;5092971;28;20420;-79
2021/05/21 01:24:55;;;;;;;1.20;1.20;;;14.70;99.90;;;;;;5091855;28;20216;-78
2021/05/21 01:27:24;;;;;;;2.03;1.00;;;14.80;99.90;;;;;;5089293;28;20201;-78
2021/05/21 01:29:50;;;;;;;1.75;1.42;;;14.90;99.90;;;;;;5089824;28;20208;-78
2021/05/21 01:32:17;;;;;;;2.58;1.40;;;14.90;99.90;;;;;;5089971;28;20205;-78
2021/05/21 01:34:43;;;;;;;1.50;1.30;;;14.80;99.90;;;;;;5088210;28;20228;-78
2021/05/21 01:37:14;;;;;;;2.13;1.48;;;14.80;99.90;;;;;;5095159;28;20204;-78
2021/05/21 01:39:42;;;;;;;2.55;1.30;;;14.70;99.90;;;;;;5088852;28;20268;-78
2021/05/21 01:42:11;;;;;;;1.92;1.60;;;14.70;99.90;;;;;;5095020;28;20208;-78
2021/05/21 01:52:44;;;;;;;1.60;1.50;;;14.60;99.90;;;;;;5088303;28;20283;-78
2021/05/21 01:55:11;;;;;;;1.67;1.25;;;14.70;99.90;;;;;;5089237;28;20200;-80
2021/05/21 01:57:38;;;;;;;2.03;1.42;;;14.70;99.90;;;;;;5088907;28;20204;-78
2021/05/21 02:00:07;;;;;;;1.33;1.23;;;14.70;99.90;;;;;;5090012;28;20201;-78
2021/05/21 02:02:34;;;;;;;1.55;1.45;;;14.70;99.90;;;;;;5088413;28;20221;-78
2021/05/21 02:05:00;;;;;;;7.25;1.65;;;14.70;99.90;;;;;;5094948;28;20237;-79
2021/05/21 02:07:27;;;;;;;3.58;1.23;;;14.70;99.90;;;;;;5089079;28;20208;-78
2021/05/21 02:09:57;;;;;;;1.42;1.33;;;14.80;99.90;;;;;;5094892;28;20200;-78
2021/05/21 02:12:25;;;;;;;1.40;1.15;;;14.80;99.90;;;;;;5092782;28;20232;-79
2021/05/21 02:14:52;;;;;;;3.85;1.42;;;14.80;99.90;;;;;;5090246;28;20197;-78
2021/05/21 02:28:18;;;;;;;1.13;1.10;;;14.90;99.90;;;;;;5094996;28;20616;-78
2021/05/21 02:30:45;;;;;;;1.40;1.17;;;14.90;99.90;;;;;;5090066;28;20208;-78
2021/05/21 02:33:11;;;;;;;4.97;1.38;;;14.90;99.90;;;;;;5089509;28;20258;-78
2021/05/21 02:35:37;;;;;;;1.60;1.35;;;14.90;99.90;;;;;;5093947;28;20208;-77
2021/05/21 02:38:04;;;;;;;5.55;1.10;;;14.90;99.90;;;;;;5091107;28;20201;-78
2021/05/21 02:40:30;;;;;;;1.45;0.93;;;14.90;99.90;;;;;;5092457;28;20203;-78
2021/05/21 02:42:57;;;;;;;1.83;1.25;;;14.80;99.90;;;;;;5088499;28;20204;-78
2021/05/21 02:45:25;;;;;;;1.40;1.30;;;14.80;99.90;;;;;;5095398;28;20296;-78
2021/05/21 02:47:51;;;;;;;5.88;1.40;;;14.80;99.90;;;;;;5096979;28;20225;-78
2021/05/21 02:50:18;;;;;;;2.10;1.15;;;14.70;99.90;;;;;;5091702;28;20196;-78
2021/05/21 02:52:44;;;;;;;2.17;1.27;;;14.70;99.90;;;;;;5097799;28;20207;-78
2021/05/21 02:55:12;;;;;;;2.05;1.23;;;14.80;99.90;;;;;;5091861;28;20208;-78
2021/05/21 02:57:39;;;;;;;2.13;1.35;;;14.80;99.90;;;;;;5091817;28;20288;-77
2021/05/21 03:00:09;;;;;;;2.72;1.27;;;14.70;99.90;;;;;;5097241;28;20204;-78
2021/05/21 03:02:36;;;;;;;3.22;1.45;;;14.80;99.90;;;;;;5097064;28;20233;-78
2021/05/21 03:05:03;;;;;;;5.50;1.88;;;14.70;99.90;;;;;;5096224;28;20228;-78
2021/05/21 03:07:29;;;;;;;3.00;1.27;;;14.70;99.90;;;;;;5096528;28;20201;-78
2021/05/21 03:09:56;;;;;;;1.45;1.35;;;14.70;99.90;;;;;;5091603;28;20212;-78
2021/05/21 03:12:22;;;;;;;1.98;1.58;;;14.70;99.90;;;;;;5092033;28;20664;-78
2021/05/21 03:14:49;;;;;;;5.15;1.80;;;14.80;99.90;;;;;;5092286;28;20209;-78
2021/05/21 03:17:15;;;;;;;2.03;1.50;;;14.70;99.90;;;;;;5095821;28;20197;-78
2021/05/21 03:19:43;;;;;;;1.90;1.70;;;14.60;99.90;;;;;;5098380;28;20211;-78
2021/05/21 03:22:10;;;;;;;1.88;1.30;;;14.60;99.90;;;;;;5097442;28;20226;-78
2021/05/21 03:24:36;;;;;;;2.15;1.52;;;14.60;99.90;;;;;;5092791;28;20236;-78
2021/05/21 03:27:03;;;;;;;2.05;1.40;;;14.60;99.90;;;;;;5096572;28;20216;-78
2021/05/21 03:29:29;;;;;;;2.85;1.52;;;14.60;99.90;;;;;;5098571;28;20205;-78
2021/05/21 03:31:55;;;;;;;2.10;1.42;;;14.60;99.90;;;;;;5092099;28;20247;-78
2021/05/21 03:34:22;;;;;;;3.00;1.65;;;14.60;99.90;;;;;;5091919;28;20208;-78
2021/05/21 03:36:49;;;;;;;2.15;1.85;;;14.60;99.90;;;;;;5095508;28;20197;-78
2021/05/21 03:39:15;;;;;;;2.55;1.50;;;14.60;99.90;;;;;;5095424;28;20208;-78
2021/05/21 03:41:42;;;;;;;5.32;1.40;;;14.50;99.90;;;;;;5091742;28;20200;-78
2021/05/21 03:44:08;;;;;;;4.10;1.33;;;14.60;99.90;;;;;;5093559;28;20271;-76
2021/05/21 03:46:35;;;;;;;2.88;1.45;;;14.60;99.90;;;;;;5096384;28;20271;-78
2021/05/21 03:49:02;;;;;;;1.48;1.38;;;14.60;99.90;;;;;;5090731;28;20197;-78
2021/05/21 03:51:29;;;;;;;4.55;1.00;;;14.50;99.90;;;;;;5097910;28;20204;-78
2021/05/21 03:53:57;;;;;;;2.60;1.00;;;14.50;99.90;;;;;;5094248;28;20208;-78
2021/05/21 03:56:23;;;;;;;4.45;0.93;;;14.50;99.90;;;;;;5105860;28;20201;-79
2021/05/21 03:58:52;;;;;;;3.03;1.10;;;14.50;99.90;;;;;;5096616;28;20251;-78
2021/05/21 04:01:18;;;;;;;4.03;1.77;;;14.60;99.90;;;;;;5098903;28;20285;-78
2021/05/21 04:03:45;;;;;;;0.80;0.80;;;14.50;99.90;;;;;;5092082;28;20230;-79
2021/05/21 04:06:11;;;;;;;4.10;1.20;;;14.50;99.90;;;;;;5091599;28;20221;-78
2021/05/21 04:08:41;;;;;;;1.75;1.02;;;14.50;99.90;;;;;;5091381;28;20388;-79
2021/05/21 04:16:31;;;;;;;2.22;1.40;;;14.50;99.90;;;;;;5091617;28;20232;-78
2021/05/21 04:18:58;;;;;;;3.33;1.33;;;14.50;99.90;;;;;;5092195;28;20197;-79
2021/05/21 04:21:24;;;;;;;4.15;1.20;;;14.40;99.90;;;;;;5091140;28;20311;-79
2021/05/21 04:23:52;;;;;;;1.55;1.23;;;14.40;99.90;;;;;;5091475;28;20209;-78
2021/05/21 04:26:20;;;;;;;3.88;1.23;;;14.40;99.90;;;;;;5091498;28;20227;-79
2021/05/21 04:28:47;;;;;;;1.48;1.38;;;14.50;99.90;;;;;;5099266;28;20221;-79
2021/05/21 04:31:14;;;;;;;3.53;1.25;;;14.40;99.90;;;;;;5091374;28;20200;-77
2021/05/21 04:33:44;;;;;;;2.88;1.58;;;14.50;99.90;;;;;;5091791;28;20216;-79
2021/05/21 04:36:11;;;;;;;1.85;1.30;;;14.50;99.90;;;;;;5094876;28;20190;-78
2021/05/21 04:41:26;;;;;;;2.45;1.73;;;14.50;99.90;;;;;;5093051;28;20201;-79
2021/05/21 04:46:34;;;;;;;1.95;1.23;;;14.50;99.90;;;;;;5096281;28;20203;-78
2021/05/21 04:49:01;;;;;;;4.65;2.10;;;14.60;99.90;;;;;;5089249;28;20205;-77
2021/05/21 04:51:27;;;;;;;4.65;1.58;;;14.60;99.90;;;;;;5090903;28;20229;-78
2021/05/21 04:53:53;;;;;;;2.80;1.38;;;14.60;99.90;;;;;;5091760;28;20204;-79
2021/05/21 04:56:28;;;;;;;3.63;1.50;;;14.70;99.90;;;;;;5091807;28;20197;-79
2021/05/21 04:58:55;;;;;;;4.38;1.60;;;14.70;99.90;;;;;;5091622;28;20200;-79
2021/05/21 05:01:21;;;;;;;4.50;1.20;;;14.70;99.90;;;;;;5090705;28;20236;-79
2021/05/21 05:03:48;;;;;;;1.38;1.10;;;14.70;99.90;;;;;;5091241;28;20209;-79
2021/05/21 05:06:14;;;;;;;2.63;1.20;;;14.70;99.90;;;;;;5090410;28;20228;-78
2021/05/21 05:08:41;;;;;;;3.85;1.92;;;14.80;99.90;;;;;;5090036;28;20204;-78
2021/05/21 05:11:07;;;;;;;2.58;1.45;;;14.80;99.90;;;;;;5090426;28;20197;-79
2021/05/21 05:13:35;;;;;;;3.38;1.20;;;14.80;99.90;;;;;;5089152;28;20205;-78
2021/05/21 05:16:01;;;;;;;1.30;1.00;;;14.80;99.90;;;;;;5096005;28;20214;-78
2021/05/21 05:18:28;;;;;;;3.10;1.05;;;14.80;99.90;;;;;;5096825;28;20203;-78
2021/05/21 05:20:55;;;;;;;2.35;1.05;;;14.80;99.90;;;;;;5090080;28;20201;-78
2021/05/21 05:23:21;;;;;;;1.45;1.25;;;14.80;99.90;;;;;;5089625;28;20189;-79
2021/05/21 05:25:48;;;;;;;3.78;1.52;;;14.90;99.90;;;;;;5095885;28;20232;-78
2021/05/21 05:28:16;;;;;;;1.73;1.40;;;14.90;99.90;;;;;;5095492;28;20233;-78
2021/05/21 05:30:44;;;;;;;1.70;1.40;;;14.90;99.90;;;;;;5096023;28;20279;-78
2021/05/21 05:33:11;;;;;;;1.98;1.40;;;14.90;99.90;;;;;;5095766;28;20209;-79
2021/05/21 05:35:38;;;;;;;4.55;1.65;;;14.90;99.90;;;;;;5089944;28;20208;-78
2021/05/21 05:38:04;;;;;;;2.67;1.35;;;14.90;99.90;;;;;;5089607;28;20201;-78
2021/05/21 05:40:31;;;;;;;1.70;1.60;;;14.90;99.90;;;;;;5093922;28;20205;-78
2021/05/21 05:42:58;;;;;;;5.93;1.60;;;14.90;99.90;;;;;;5094585;28;20255;-78
2021/05/21 05:45:44;;;;;;;;;;;;;;;;;;;;;
2021/05/21 05:48:11;;;;;;;1.60;1.50;;;14.80;99.90;;;;;;5085857;28;20208;-78
2021/05/21 05:50:37;;;;;;;6.03;2.15;;;14.80;99.90;;;;;;5089836;28;20254;-79
2021/05/21 05:53:04;;;;;;;2.28;1.33;;;14.70;99.90;;;;;;5090933;28;20204;-79
2021/05/21 05:55:31;;;;;;;5.43;1.33;;;14.70;99.90;;;;;;5094109;28;20325;-78
2021/05/21 05:57:57;;;;;;;2.28;1.45;;;14.70;99.90;;;;;;5101981;28;20203;-79
2021/05/21 06:00:25;;;;;;;1.60;1.50;;;14.60;99.90;;;;;;5093209;28;20201;-79
2021/05/21 06:02:52;;;;;;;2.72;1.42;;;14.60;99.90;;;;;;5088968;28;20205;-78
2021/05/21 06:05:20;;;;;;;1.83;1.73;;;14.70;99.90;;;;;;5092746;28;20224;-79
2021/05/21 06:07:47;;;;;;;1.65;1.50;;;14.70;99.90;;;;;;5092402;28;20207;-79
2021/05/21 06:10:13;;;;;;;3.33;1.48;;;14.80;99.90;;;;;;5094186;28;20644;-78
2021/05/21 06:12:41;;;;;;;3.53;1.45;;;14.80;99.90;;;;;;5090174;28;20209;-79
2021/05/21 06:15:08;;;;;;;1.65;1.40;;;14.80;99.90;;;;;;5090805;28;20201;-79
2021/05/21 06:17:35;;;;;;;5.53;1.30;;;14.80;99.90;;;;;;5094626;28;20201;-79
2021/05/21 06:20:01;;;;;;;2.53;1.40;;;14.80;99.90;;;;;;5092534;28;20200;-79
2021/05/21 06:22:28;;;;;;;3.25;1.30;;;14.90;99.90;;;;;;5100070;28;20642;-79
2021/05/21 06:25:05;;;;;;;6.75;1.77;;;14.90;99.90;;;;;;5099607;28;20221;-77
2021/05/21 06:27:31;;;;;;;4.28;1.40;;;15.00;99.90;;;;;;5100544;28;20201;-78
2021/05/21 06:29:58;;;;;;;12.57;2.20;;;14.90;99.90;;;;;;5093989;28;20197;-78
2021/05/21 06:32:24;;;;;;;1.73;1.63;;;15.00;99.90;;;;;;5093414;28;20268;-79
2021/05/21 06:34:51;;;;;;;4.20;1.52;;;15.10;99.90;;;;;;5094971;28;20205;-79
2021/05/21 06:37:17;;;;;;;5.32;2.00;;;15.10;99.90;;;;;;5095301;28;22146;-79
2021/05/21 06:39:44;;;;;;;9.13;1.23;;;15.20;99.90;;;;;;5093688;28;20208;-79
2021/05/21 06:42:11;;;;;;;4.78;1.08;;;15.30;99.90;;;;;;5093881;28;20197;-78
2021/05/21 06:44:37;;;;;;;4.60;1.42;;;15.30;99.90;;;;;;5093151;28;20232;-79
2021/05/21 06:47:04;;;;;;;6.32;2.30;;;15.30;99.90;;;;;;5093759;28;20208;-79
2021/05/21 06:49:34;;;;;;;4.60;1.73;;;15.30;99.90;;;;;;5093990;28;20201;-79
2021/05/21 06:52:00;;;;;;;5.47;1.30;;;15.40;99.90;;;;;;5099933;28;20222;-77
2021/05/21 06:54:27;;;;;;;5.95;1.73;;;15.50;99.90;;;;;;5094508;28;20201;-76
2021/05/21 06:56:54;;;;;;;6.57;2.03;;;15.70;99.90;;;;;;5099672;28;20204;-77
2021/05/21 06:59:20;;;;;;;4.18;1.63;;;15.90;99.90;;;;;;5096194;28;20227;-76
2021/05/21 07:01:47;;;;;;;5.30;2.05;;;16.00;99.90;;;;;;5094542;28;20240;-77
2021/05/21 07:04:13;;;;;;;4.72;1.50;;;16.00;99.90;;;;;;5097161;28;20212;-78
2021/05/21 07:06:39;;;;;;;10.95;1.65;;;16.00;99.90;;;;;;5099516;28;20228;-78
2021/05/21 07:09:06;;;;;;;5.03;2.33;;;15.90;99.90;;;;;;5096412;28;20647;-79
2021/05/21 07:11:32;;;;;;;8.18;1.95;;;15.90;99.90;;;;;;5098164;28;20197;-78
2021/05/21 07:14:00;;;;;;;4.93;1.95;;;15.80;99.90;;;;;;5098400;28;20212;-79
2021/05/21 07:16:27;;;;;;;6.65;1.90;;;15.80;99.90;;;;;;5092567;28;20228;-79
2021/05/21 07:18:53;;;;;;;8.82;1.80;;;15.80;99.90;;;;;;5091550;28;20213;-78
2021/05/21 07:21:19;;;;;;;10.00;2.58;;;15.80;99.90;;;;;;5092948;28;20288;-78
2021/05/21 07:23:46;;;;;;;5.32;1.77;;;16.10;99.90;;;;;;5096285;28;20212;-79
2021/05/21 07:26:13;;;;;;;6.50;1.85;;;16.40;99.90;;;;;;5092106;28;20217;-78
2021/05/21 07:28:40;;;;;;;7.50;1.83;;;16.60;99.90;;;;;;5094097;28;20193;-79
2021/05/21 07:31:07;;;;;;;6.38;2.15;;;16.70;99.90;;;;;;5092767;28;20209;-78
2021/05/21 07:33:35;;;;;;;6.82;1.67;;;16.70;99.90;;;;;;5096121;28;20196;-78
2021/05/21 07:36:02;;;;;;;8.77;2.65;;;16.60;99.90;;;;;;5092681;28;20478;-78
2021/05/21 07:38:28;;;;;;;14.20;1.90;;;16.30;99.90;;;;;;5098061;28;20204;-79
2021/05/21 07:40:55;;;;;;;4.47;1.67;;;16.20;99.90;;;;;;5101348;28;20215;-79
2021/05/21 07:43:21;;;;;;;9.70;1.70;;;16.10;99.90;;;;;;5092493;28;20451;-79
2021/05/21 07:45:47;;;;;;;6.57;2.30;;;16.10;99.90;;;;;;5092688;28;20229;-79
2021/05/21 07:48:15;;;;;;;5.95;1.95;;;16.30;99.90;;;;;;5091508;28;20219;-78
2021/05/21 07:50:41;;;;;;;7.78;1.80;;;16.50;99.90;;;;;;5098242;28;20212;-78
2021/05/21 07:53:09;;;;;;;12.00;2.10;;;17.00;99.90;;;;;;5091991;28;20235;-78
2021/05/21 07:55:36;;;;;;;7.55;2.25;;;17.20;99.90;;;;;;5096141;28;20203;-78
2021/05/21 07:58:02;;;;;;;6.43;1.42;;;17.30;99.90;;;;;;5096926;28;20204;-78
2021/05/21 08:00:29;;;;;;;15.40;2.35;;;17.30;99.90;;;;;;5097262;28;20198;-78
2021/05/21 08:02:55;;;;;;;10.90;2.53;;;17.20;99.90;;;;;;5091116;28;20226;-78
2021/05/21 08:05:23;;;;;;;6.35;1.83;;;17.10;99.90;;;;;;5092767;28;20325;-78
2021/05/21 08:07:50;;;;;;;8.52;2.40;;;17.20;99.90;;;;;;5091953;28;20226;-78
2021/05/21 08:10:16;;;;;;;16.33;3.05;;;17.30;99.90;;;;;;5091630;28;20201;-78
2021/05/21 08:12:43;;;;;;;12.35;2.10;;;17.40;99.90;;;;;;5091341;28;20201;-78
2021/05/21 08:15:11;;;;;;;6.70;2.63;;;17.40;99.90;;;;;;5097350;28;20205;-78
2021/05/21 08:17:37;;;;;;;5.57;1.92;;;17.50;99.90;;;;;;5098209;28;20676;-79
2021/05/21 08:20:05;;;;;;;8.30;2.22;;;17.60;99.90;;;;;;5095458;28;20201;-78
2021/05/21 08:22:32;;;;;;;2.95;1.40;;;17.60;99.90;;;;;;5096908;28;20208;-78
2021/05/21 08:24:58;;;;;;;8.93;2.28;;;17.40;99.90;;;;;;5091739;28;20225;-78
2021/05/21 08:27:25;;;;;;;7.32;2.63;;;17.30;99.90;;;;;;5091336;28;20205;-78
2021/05/21 08:29:51;;;;;;;20.30;2.38;;;17.40;99.90;;;;;;5091847;28;20201;-79
2021/05/21 08:32:18;;;;;;;5.65;1.92;;;17.50;99.90;;;;;;5091531;28;20232;-79
2021/05/21 08:34:44;;;;;;;6.53;1.50;;;17.80;99.90;;;;;;5092645;28;20205;-79
2021/05/21 08:37:11;;;;;;;9.02;2.42;;;17.80;99.90;;;;;;5097993;28;20636;-79
2021/05/21 08:39:39;;;;;;;5.47;1.63;;;17.90;99.90;;;;;;5092362;28;20209;-79
2021/05/21 08:42:08;;;;;;;10.15;2.30;;;17.80;99.90;;;;;;5095797;28;20200;-78
2021/05/21 08:44:37;;;;;;;9.02;2.10;;;18.00;99.90;;;;;;5097115;28;20201;-78
2021/05/21 08:47:06;;;;;;;6.32;1.80;;;18.40;99.90;;;;;;5091271;28;20226;-79
2021/05/21 08:49:32;;;;;;;13.73;1.80;;;18.60;99.90;;;;;;5096144;28;20229;-79
2021/05/21 08:52:00;;;;;;;13.50;2.05;;;18.90;99.90;;;;;;5091160;28;20212;-78
2021/05/21 08:54:34;;;;;;;10.73;1.80;;;19.10;99.90;;;;;;5092983;28;20232;-79
2021/05/21 08:57:05;;;;;;;8.18;1.80;;;19.30;99.90;;;;;;5091159;28;20525;-79
2021/05/21 08:59:31;;;;;;;5.47;2.28;;;19.50;99.90;;;;;;5096084;28;20204;-78
2021/05/21 09:01:58;;;;;;;10.15;3.03;;;19.30;99.90;;;;;;5094398;28;20252;-78
2021/05/21 09:04:25;;;;;;;5.03;1.80;;;19.30;99.90;;;;;;5091477;28;20209;-78
2021/05/21 09:06:51;;;;;;;12.45;2.20;;;19.40;99.90;;;;;;5092617;28;20219;-78
2021/05/21 09:09:18;;;;;;;9.43;2.00;;;19.00;99.60;;;;;;5092162;28;20200;-78
2021/05/21 09:11:46;;;;;;;9.38;2.50;;;18.60;98.50;;;;;;5090613;28;22368;-78
2021/05/21 09:14:15;;;;;;;6.65;1.73;;;18.40;99.50;;;;;;5093076;28;20205;-76
2021/05/21 09:16:43;;;;;;;6.32;1.98;;;18.20;99.50;;;;;;5091344;28;20201;-79
2021/05/21 09:19:15;;;;;;;3.75;1.80;;;18.30;99.30;;;;;;5091406;28;20205;-79
2021/05/21 09:21:53;;;;;;;5.03;2.55;;;18.50;99.20;;;;;;5095578;28;20225;-79
2021/05/21 09:24:22;;;;;;;10.25;2.53;;;18.70;99.70;;;;;;5095601;28;20211;-78
2021/05/21 09:26:51;;;;;;;12.30;2.30;;;19.00;97.50;;;;;;5090372;28;20227;-79
2021/05/21 09:29:33;;;;;;;12.18;2.42;;;18.80;98.40;;;;;;5097049;28;20200;-79
2021/05/21 09:32:00;;;;;;;10.75;2.80;;;18.80;98.20;;;;;;5094548;28;20204;-79
2021/05/21 09:34:31;;;;;;;6.38;2.40;;;18.70;98.50;;;;;;5101457;28;20193;-79
2021/05/21 09:36:58;;;;;;;16.50;2.92;;;18.70;97.80;;;;;;5098974;28;20226;-79
2021/05/21 09:39:25;;;;;;;6.50;2.20;;;18.40;98.00;;;;;;5096635;28;20495;-78
2021/05/21 09:41:53;;;;;;;5.63;1.67;;;18.20;99.00;;;;;;5090032;28;20197;-78
2021/05/21 09:44:21;;;;;;;4.85;1.30;;;18.30;98.00;;;;;;5090774;28;20223;-78
2021/05/21 09:46:50;;;;;;;6.30;1.50;;;18.50;98.30;;;;;;5091619;28;20220;-78
2021/05/21 09:49:27;;;;;;;8.23;2.22;;;18.60;97.30;;;;;;5099310;28;20197;-79
2021/05/21 09:51:54;;;;;;;7.38;2.25;;;18.40;98.40;;;;;;5087863;28;20200;-79
2021/05/21 09:54:20;;;;;;;13.98;2.38;;;18.20;98.10;;;;;;5089392;28;20216;-79
2021/05/21 09:57:00;;;;;;;5.00;1.70;;;18.10;97.10;;;;;;5089694;28;20219;-78
2021/05/21 09:59:44;;;;;;;11.13;1.80;;;18.00;98.10;;;;;;5087241;28;20197;-77
2021/05/21 10:05:11;;;;;;;10.05;2.35;;;17.70;97.70;;;;;;5104685;27;20584;-77
2021/05/21 10:10:18;;;;;;;12.45;2.30;;;17.90;99.00;;;;;;5101687;28;20196;-76
2021/05/21 10:12:45;;;;;;;6.70;1.90;;;18.40;98.40;;;;;;5100847;28;20226;-77
2021/05/21 10:15:12;;;;;;;5.38;2.00;;;18.40;98.10;;;;;;5101467;28;20197;-77
2021/05/21 10:17:40;;;;;;;9.63;2.22;;;18.10;97.20;;;;;;5100855;28;20236;-76
2021/05/21 10:20:08;;;;;;;9.75;2.25;;;17.90;98.10;;;;;;5101083;28;20899;-77
2021/05/21 10:22:39;;;;;;;6.80;1.90;;;18.20;97.50;;;;;;5100797;28;20239;-77
2021/05/21 10:25:10;;;;;;;9.98;2.28;;;18.50;97.30;;;;;;5100354;28;20196;-77
2021/05/21 10:27:40;;;;;;;12.50;2.40;;;18.40;97.20;;;;;;5101963;28;20227;-77
2021/05/21 10:30:09;;;;;;;6.07;1.45;;;18.20;97.70;;;;;;5100122;28;20207;-76
2021/05/21 10:32:36;;;;;;;4.40;1.60;;;18.20;97.10;;;;;;5101702;28;20212;-77
2021/05/21 10:35:16;;;;;;;10.57;2.03;;;18.50;96.80;;;;;;5100739;28;20211;-77
2021/05/21 10:37:45;;;;;;;7.57;1.70;;;19.10;96.80;;;;;;5099366;28;20208;-77
2021/05/21 10:40:14;;;;;;;5.85;1.92;;;19.60;94.70;;;;;;5098947;28;20221;-76
2021/05/21 10:42:46;;;;;;;8.18;1.80;;;19.90;95.60;;;;;;5099517;28;20287;-77
2021/05/21 10:45:16;;;;;;;8.30;2.25;;;20.10;94.80;;;;;;5100288;28;20201;-76
2021/05/21 10:47:45;;;;;;;5.28;1.77;;;20.30;94.70;;;;;;5100392;28;20217;-76
2021/05/21 10:50:17;;;;;;;4.10;1.60;;;20.20;93.50;;;;;;5100658;28;20245;-77
2021/05/21 10:52:52;;;;;;;5.68;1.65;;;20.10;93.70;;;;;;5100452;28;20249;-77
2021/05/21 10:55:20;;;;;;;5.63;1.73;;;20.20;92.80;;;;;;5099979;28;20196;-76
2021/05/21 10:57:59;;;;;;;12.63;2.00;;;20.30;93.10;;;;;;5100192;28;20209;-77
2021/05/21 11:00:26;;;;;;;6.90;2.10;;;20.50;92.50;;;;;;5100107;28;20204;-77
2021/05/21 11:02:54;;;;;;;7.95;1.77;;;20.60;93.20;;;;;;5099983;28;20229;-76
2021/05/21 11:05:23;;;;;;;7.57;2.17;;;20.60;92.40;;;;;;5101137;28;20197;-77
2021/05/21 11:07:56;;;;;;;5.57;1.65;;;20.50;92.30;;;;;;5100479;28;20207;-76
2021/05/21 11:10:27;;;;;;;12.57;2.28;;;20.40;92.40;;;;;;5100207;28;20203;-77
2021/05/21 11:12:58;;;;;;;4.15;1.52;;;20.00;91.90;;;;;;5099516;28;20204;-77
2021/05/21 11:15:42;;;;;;;6.47;1.73;;;19.70;92.30;;;;;;5091182;28;20208;-77
2021/05/21 11:18:30;;;;;;;9.02;2.42;;;19.40;92.60;;;;;;5085732;28;20252;-76
2021/05/21 11:21:08;;;;;;;10.60;2.00;;;19.30;92.30;;;;;;5085909;28;20208;-77
2021/05/21 11:23:37;;;;;;;12.70;2.10;;;19.20;92.20;;;;;;5085760;28;20250;-77
2021/05/21 11:26:26;;;;;;;11.55;2.30;;;19.00;92.70;;;;;;5086181;28;20201;-77
2021/05/21 11:28:55;;;;;;;5.07;2.00;;;18.90;94.00;;;;;;5080380;28;20197;-76
2021/05/21 11:31:23;;;;;;;9.05;2.65;;;18.90;92.30;;;;;;5085421;28;20197;-76
2021/05/21 11:33:51;;;;;;;8.23;1.83;;;18.90;92.00;;;;;;5080145;28;20244;-77
2021/05/21 11:36:19;;;;;;;9.93;1.70;;;19.00;93.90;;;;;;5086271;28;20197;-76
2021/05/21 11:38:47;;;;;;;6.78;1.88;;;19.00;92.50;;;;;;5086931;28;20200;-76
2021/05/21 11:41:13;;;;;;;6.50;1.48;;;19.10;91.90;;;;;;5086582;28;20204;-76
2021/05/21 11:43:41;;;;;;;7.05;1.83;;;19.20;90.80;;;;;;5086569;28;20243;-76
2021/05/21 11:46:14;;;;;;;7.47;1.70;;;19.20;91.10;;;;;;5086217;28;20205;-76
2021/05/21 11:48:41;;;;;;;5.25;1.70;;;19.10;91.50;;;;;;5080735;28;20216;-77
2021/05/21 11:51:13;;;;;;;3.58;1.60;;;19.10;91.50;;;;;;5085049;28;20201;-76
2021/05/21 11:53:48;;;;;;;4.88;1.80;;;19.10;90.50;;;;;;5086269;28;20215;-76
2021/05/21 11:56:15;;;;;;;3.97;1.10;;;19.20;91.10;;;;;;5086268;28;20200;-77
2021/05/21 11:58:42;;;;;;;5.32;1.60;;;19.10;91.00;;;;;;5086265;28;20197;-77
2021/05/21 12:01:08;;;;;;;12.68;1.98;;;19.10;90.80;;;;;;5085874;28;20205;-76
2021/05/21 12:03:37;;;;;;;4.05;1.63;;;19.10;90.90;;;;;;5086945;28;20233;-77
2021/05/21 12:06:04;;;;;;;4.28;1.60;;;19.00;91.30;;;;;;5085147;28;20207;-76
2021/05/21 12:08:31;;;;;;;3.55;1.30;;;19.10;90.90;;;;;;5085278;28;20201;-76
2021/05/21 12:10:59;;;;;;;5.30;1.50;;;19.20;90.80;;;;;;5084975;28;20208;-76
2021/05/21 12:13:31;;;;;;;5.18;1.50;;;19.30;90.80;;;;;;5085570;28;20216;-77
2021/05/21 12:16:18;;;;;;;7.35;2.08;;;19.20;91.60;;;;;;5085936;28;20261;-77
2021/05/21 12:18:45;;;;;;;6.10;2.00;;;19.10;90.80;;;;;;5082601;28;20205;-76
2021/05/21 12:21:12;;;;;;;4.88;1.92;;;19.10;91.60;;;;;;5084813;28;20230;-76
2021/05/21 12:23:40;;;;;;;6.30;1.88;;;19.10;91.30;;;;;;5085015;28;20581;-77
2021/05/21 12:26:07;;;;;;;4.70;1.35;;;19.10;92.20;;;;;;5084201;28;20209;-77
2021/05/21 12:28:34;;;;;;;6.07;1.80;;;19.10;91.50;;;;;;5084370;28;20228;-76
2021/05/21 12:31:04;;;;;;;3.47;1.30;;;19.10;91.20;;;;;;5085213;28;20205;-76
2021/05/21 12:33:33;;;;;;;5.93;1.83;;;19.10;90.90;;;;;;5084777;28;20194;-76
2021/05/21 12:36:08;;;;;;;8.32;2.17;;;19.10;91.10;;;;;;5084229;28;20209;-77
2021/05/21 12:41:18;;;;;;;11.23;1.80;;;18.90;91.30;;;;;;5080301;28;20596;-76
2021/05/21 12:43:44;;;;;;;7.10;2.08;;;19.00;91.60;;;;;;5084654;28;20231;-76
2021/05/21 12:46:14;;;;;;;5.15;1.50;;;19.00;90.60;;;;;;5083486;28;20626;-76
2021/05/21 12:48:42;;;;;;;4.47;1.98;;;19.10;90.90;;;;;;5084244;28;20202;-76
2021/05/21 12:51:23;;;;;;;6.22;1.60;;;19.10;90.10;;;;;;5084221;28;20205;-75
2021/05/21 12:53:50;;;;;;;6.45;1.85;;;19.10;89.40;;;;;;5084517;28;20212;-78
2021/05/21 12:56:37;;;;;;;10.27;2.13;;;19.10;88.20;;;;;;5084383;28;20213;-78
2021/05/21 12:59:06;;;;;;;2.85;1.70;;;19.10;88.90;;;;;;5084951;28;20227;-77
2021/05/21 13:01:33;;;;;;;7.45;1.13;;;19.00;89.10;;;;;;5084015;28;20208;-76
2021/05/21 13:04:00;;;;;;;4.82;1.70;;;19.00;90.50;;;;;;5082918;28;20225;-76
2021/05/21 13:06:28;;;;;;;10.48;1.77;;;19.00;89.40;;;;;;5083186;28;20236;-75
2021/05/21 13:08:57;;;;;;;6.55;1.67;;;19.00;88.40;;;;;;5083707;28;20212;-77
2021/05/21 13:11:23;;;;;;;4.68;1.75;;;19.10;89.30;;;;;;5084291;28;20201;-77
2021/05/21 13:13:57;;;;;;;3.28;1.60;;;19.20;88.50;;;;;;5084347;28;20200;-77
2021/05/21 13:16:38;;;;;;;5.65;1.80;;;19.10;90.30;;;;;;5081493;28;20206;-77
2021/05/21 13:19:05;;;;;;;7.53;1.60;;;19.20;90.20;;;;;;5083317;28;20733;-77
2021/05/21 13:21:32;;;;;;;8.93;2.17;;;19.10;88.50;;;;;;5083852;28;20209;-75
2021/05/21 13:24:04;;;;;;;10.20;1.88;;;19.10;87.60;;;;;;5083457;28;20224;-76
2021/05/21 13:26:44;;;;;;;6.25;1.88;;;19.10;88.20;;;;;;5084287;28;20201;-77
2021/05/21 13:29:12;;;;;;;6.35;2.15;;;19.10;89.60;;;;;;5079673;28;20216;-76
2021/05/21 13:31:38;;;;;;;7.00;2.00;;;19.20;88.90;;;;;;5083084;28;20220;-76
2021/05/21 13:34:04;;;;;;;14.02;1.88;;;19.20;87.40;;;;;;5084250;28;20212;-76
2021/05/21 13:36:31;;;;;;;8.23;2.10;;;19.10;89.30;;;;;;5084423;28;20201;-77
2021/05/21 13:38:57;;;;;;;7.45;2.53;;;19.10;87.80;;;;;;5085993;28;20205;-78
2021/05/21 13:41:25;;;;;;;4.80;2.28;;;19.00;86.10;;;;;;5086792;28;20197;-77
2021/05/21 13:43:53;;;;;;;3.50;1.80;;;18.90;86.40;;;;;;5084356;28;20228;-77
2021/05/21 13:46:23;;;;;;;10.43;2.17;;;18.90;87.00;;;;;;5082888;28;20264;-77
2021/05/21 13:48:50;;;;;;;3.58;1.50;;;19.00;88.80;;;;;;5083061;28;20197;-76
2021/05/21 13:51:17;;;;;;;7.38;1.92;;;19.00;88.20;;;;;;5115491;28;20201;-77
2021/05/21 13:53:44;;;;;;;5.60;1.77;;;19.10;87.40;;;;;;5083487;28;20209;-76
2021/05/21 13:56:11;;;;;;;6.45;1.55;;;19.10;87.00;;;;;;5083255;28;20205;-77
2021/05/21 13:58:37;;;;;;;6.28;2.53;;;19.20;87.40;;;;;;5083714;28;20200;-76